createdAt,value
2023-03-12T00:01:10.779Z,100701.41
2023-03-12T00:03:40.385Z,100721.38
2023-03-12T00:06:30.263Z,100720.53
2023-03-12T00:08:58.272Z,100704.50
2023-03-12T00:11:24.974Z,100709.16
2023-03-12T00:13:52.896Z,100715.56
2023-03-12T00:16:20.315Z,100707.94
2023-03-12T00:18:52.300Z,100706.06
2023-03-12T00:21:22.394Z,100696.31
2023-03-12T00:23:49.708Z,100687.28
2023-03-12T00:26:17.274Z,100685.41
2023-03-12T00:28:44.155Z,100678.22
2023-03-12T00:31:24.391Z,100688.69
2023-03-12T00:33:55.014Z,100677.81
2023-03-12T00:36:24.906Z,100680.38
2023-03-12T00:38:52.595Z,100681.84
2023-03-12T00:41:22.278Z,100674.28
2023-03-12T00:43:50.225Z,100677.25
2023-03-12T00:46:17.608Z,100668.19
2023-03-12T00:48:44.819Z,100656.97
2023-03-12T00:51:12.389Z,100655.22
2023-03-12T00:53:39.555Z,100660.47
2023-03-12T00:56:07.039Z,100655.34
2023-03-12T00:58:33.908Z,100648.63
2023-03-12T01:01:00.842Z,100657.81
2023-03-12T01:03:27.892Z,100652.19
2023-03-12T01:05:57.399Z,100652.22
2023-03-12T01:08:24.525Z,100654.63
2023-03-12T01:10:52.150Z,100651.59
2023-03-12T01:13:19.036Z,100653.31
2023-03-12T01:15:45.857Z,100645.63
2023-03-12T01:18:12.629Z,100643.47
2023-03-12T01:20:40.795Z,100634.00
2023-03-12T01:23:07.880Z,100634.22
2023-03-12T01:25:35.518Z,100634.19
2023-03-12T01:28:02.456Z,100642.75
2023-03-12T01:30:29.779Z,100644.06
2023-03-12T01:32:56.613Z,100642.19
2023-03-12T01:35:23.596Z,100645.56
2023-03-12T01:37:50.461Z,100642.28
2023-03-12T01:40:19.416Z,100641.44
2023-03-12T01:42:56.836Z,100642.47
2023-03-12T01:45:51.596Z,100631.44
2023-03-12T01:48:19.612Z,100626.25
2023-03-12T01:50:47.267Z,100623.97
2023-03-12T01:53:14.105Z,100625.78
2023-03-12T01:55:41.699Z,100611.22
2023-03-12T01:58:09.600Z,100611.28
2023-03-12T02:00:36.361Z,100614.69
2023-03-12T02:03:06.762Z,100611.50
2023-03-12T02:05:39.170Z,100607.69
2023-03-12T02:08:05.931Z,100595.50
2023-03-12T02:10:32.668Z,100595.63
2023-03-12T02:12:59.333Z,100585.72
2023-03-12T02:15:26.098Z,100583.72
2023-03-12T02:17:54.184Z,100579.13
2023-03-12T02:20:32.439Z,100580.16
2023-03-12T02:23:09.308Z,100571.66
2023-03-12T02:25:39.491Z,100568.47
2023-03-12T02:28:10.108Z,100561.16
2023-03-12T02:30:39.775Z,100552.75
2023-03-12T02:33:08.731Z,100553.34
2023-03-12T02:35:36.641Z,100542.09
2023-03-12T02:38:04.231Z,100543.19
2023-03-12T02:40:37.656Z,100539.56
2023-03-12T02:43:06.679Z,100548.00
2023-03-12T02:45:34.152Z,100536.19
2023-03-12T02:48:02.160Z,100532.78
2023-03-12T02:50:28.828Z,100529.72
2023-03-12T02:52:55.701Z,100527.09
2023-03-12T02:55:22.706Z,100531.50
2023-03-12T02:57:49.434Z,100524.72
2023-03-12T03:00:16.906Z,100524.91
2023-03-12T03:02:48.227Z,100505.78
2023-03-12T03:05:15.360Z,100504.88
2023-03-12T03:07:42.211Z,100490.34
2023-03-12T03:10:09.955Z,100502.59
2023-03-12T03:12:37.486Z,100521.94
2023-03-12T03:15:06.256Z,100524.31
2023-03-12T03:17:33.337Z,100525.34
2023-03-12T03:20:00.170Z,100528.91
2023-03-12T03:22:27.124Z,100519.75
2023-03-12T03:24:54.230Z,100522.47
2023-03-12T03:27:21.010Z,100514.38
2023-03-12T03:32:14.998Z,100517.28
2023-03-12T03:34:42.023Z,100507.91
2023-03-12T03:37:08.734Z,100513.28
2023-03-12T03:39:36.043Z,100507.78
2023-03-12T03:42:03.177Z,100501.97
2023-03-12T03:44:32.700Z,100505.97
2023-03-12T03:47:00.591Z,100497.59
2023-03-12T03:49:27.287Z,100513.56
2023-03-12T03:51:54.198Z,100500.81
2023-03-12T03:54:31.236Z,100501.84
2023-03-12T03:56:58.532Z,100485.72
2023-03-12T03:59:25.246Z,100491.34
2023-03-12T04:01:52.359Z,100487.75
2023-03-12T04:04:19.175Z,100491.66
2023-03-12T04:06:45.992Z,100490.66
2023-03-12T04:09:13.725Z,100489.72
2023-03-12T04:11:40.713Z,100487.03
2023-03-12T04:14:08.813Z,100494.81
2023-03-12T04:16:38.209Z,100496.53
2023-03-12T04:19:05.278Z,100487.13
2023-03-12T04:21:32.067Z,100485.31
2023-03-12T04:23:58.919Z,100482.97
2023-03-12T04:26:29.638Z,100489.41
2023-03-12T04:28:57.336Z,100490.03
2023-03-12T04:31:24.961Z,100471.69
2023-03-12T04:33:51.663Z,100473.75
2023-03-12T04:36:21.973Z,100473.78
2023-03-12T04:38:50.418Z,100472.81
2023-03-12T04:41:20.867Z,100466.44
2023-03-12T04:43:52.391Z,100476.75
2023-03-12T04:46:20.503Z,100467.03
2023-03-12T04:48:47.286Z,100466.44
2023-03-12T04:51:15.013Z,100459.75
2023-03-12T04:53:42.178Z,100446.50
2023-03-12T04:56:11.616Z,100458.75
2023-03-12T04:58:39.179Z,100450.16
2023-03-12T05:01:06.559Z,100446.97
2023-03-12T05:03:33.409Z,100443.84
2023-03-12T05:06:00.779Z,100440.84
2023-03-12T05:08:27.654Z,100435.91
2023-03-12T05:10:55.213Z,100440.00
2023-03-12T05:13:22.842Z,100444.59
2023-03-12T05:15:53.473Z,100439.13
2023-03-12T05:18:21.548Z,100439.38
2023-03-12T05:21:01.675Z,100438.47
2023-03-12T05:23:29.227Z,100440.66
2023-03-12T05:25:57.258Z,100426.34
2023-03-12T05:28:27.986Z,100429.22
2023-03-12T05:30:59.118Z,100438.00
2023-03-12T05:33:27.645Z,100436.25
2023-03-12T05:35:54.883Z,100443.22
2023-03-12T05:38:22.065Z,100447.56
2023-03-12T05:40:57.254Z,100454.88
2023-03-12T05:43:24.354Z,100456.66
2023-03-12T05:45:52.355Z,100451.97
2023-03-12T05:48:19.409Z,100451.81
2023-03-12T05:50:46.438Z,100442.84
2023-03-12T05:53:13.272Z,100435.72
2023-03-12T05:55:40.802Z,100443.97
2023-03-12T05:58:08.430Z,100443.97
2023-03-12T06:00:38.119Z,100441.03
2023-03-12T06:03:06.681Z,100445.91
2023-03-12T06:05:35.557Z,100441.59
2023-03-12T06:08:03.763Z,100447.13
2023-03-12T06:10:30.926Z,100429.44
2023-03-12T06:12:58.114Z,100433.47
2023-03-12T06:15:24.831Z,100414.19
2023-03-12T06:17:51.640Z,100424.38
2023-03-12T06:20:18.481Z,100424.47
2023-03-12T06:22:45.177Z,100427.44
2023-03-12T06:25:11.961Z,100417.28
2023-03-12T06:27:38.782Z,100423.81
2023-03-12T06:30:06.125Z,100418.88
2023-03-12T06:32:33.059Z,100411.13
2023-03-12T06:35:04.447Z,100409.78
2023-03-12T06:37:31.493Z,100408.75
2023-03-12T06:39:58.197Z,100412.31
2023-03-12T06:42:26.554Z,100411.91
2023-03-12T06:44:53.841Z,100412.00
2023-03-12T06:47:20.687Z,100410.84
2023-03-12T06:49:47.483Z,100410.91
2023-03-12T06:52:14.222Z,100419.22
2023-03-12T06:54:41.287Z,100419.34
2023-03-12T06:57:07.959Z,100423.81
2023-03-12T06:59:34.791Z,100422.34
2023-03-12T07:02:01.963Z,100424.47
2023-03-12T07:04:28.787Z,100439.38
2023-03-12T07:06:55.535Z,100429.53
2023-03-12T07:09:22.350Z,100432.34
2023-03-12T07:11:49.913Z,100438.03
2023-03-12T07:14:16.610Z,100434.66
2023-03-12T07:16:43.603Z,100430.28
2023-03-12T07:19:10.445Z,100435.56
2023-03-12T07:21:37.474Z,100445.59
2023-03-12T07:24:07.111Z,100431.97
2023-03-12T07:26:35.405Z,100437.00
2023-03-12T07:29:03.385Z,100446.47
2023-03-12T07:31:30.186Z,100447.63
2023-03-12T07:33:57.203Z,100439.22
2023-03-12T07:36:24.108Z,100451.78
2023-03-12T07:38:50.877Z,100443.09
2023-03-12T07:41:17.572Z,100454.25
2023-03-12T07:43:44.558Z,100454.25
2023-03-12T07:46:11.401Z,100459.56
2023-03-12T07:48:38.840Z,100452.50
2023-03-12T07:51:06.051Z,100466.06
2023-03-12T07:53:32.922Z,100466.81
2023-03-12T07:55:59.769Z,100466.66
2023-03-12T07:58:26.630Z,100457.94
2023-03-12T08:00:55.840Z,100453.06
2023-03-12T08:03:22.804Z,100451.88
2023-03-12T08:05:59.999Z,100453.31
2023-03-12T08:08:27.436Z,100460.28
2023-03-12T08:10:54.282Z,100471.88
2023-03-12T08:13:23.031Z,100468.16
2023-03-12T08:15:51.528Z,100483.44
2023-03-12T08:18:18.989Z,100474.75
2023-03-12T08:20:46.724Z,100484.25
2023-03-12T08:23:13.586Z,100483.03
2023-03-12T08:25:40.341Z,100488.59
2023-03-12T08:28:07.022Z,100489.56
2023-03-12T08:30:34.498Z,100500.97
2023-03-12T08:33:01.329Z,100502.34
2023-03-12T08:35:28.677Z,100512.16
2023-03-12T08:37:57.012Z,100508.88
2023-03-12T08:40:24.532Z,100507.91
2023-03-12T08:42:51.273Z,100513.22
2023-03-12T08:45:18.194Z,100508.09
2023-03-12T08:47:45.122Z,100515.06
2023-03-12T08:50:12.881Z,100514.91
2023-03-12T08:52:40.917Z,100513.63
2023-03-12T08:55:08.039Z,100520.47
2023-03-12T08:57:34.784Z,100529.56
2023-03-12T09:00:01.944Z,100528.84
2023-03-12T09:02:28.697Z,100531.59
2023-03-12T09:04:55.542Z,100534.97
2023-03-12T09:07:26.064Z,100524.31
2023-03-12T09:09:55.093Z,100531.75
2023-03-12T09:12:22.098Z,100526.50
2023-03-12T09:15:02.854Z,100524.44
2023-03-12T09:17:30.560Z,100517.59
2023-03-12T09:19:57.234Z,100520.97
2023-03-12T09:22:23.954Z,100527.97
2023-03-12T09:24:50.983Z,100536.06
2023-03-12T09:27:17.809Z,100530.94
2023-03-12T09:29:57.231Z,100534.13
2023-03-12T09:32:27.499Z,100538.88
2023-03-12T09:34:54.632Z,100541.31
2023-03-12T09:37:23.943Z,100533.53
2023-03-12T09:39:51.578Z,100550.56
2023-03-12T09:42:32.013Z,100546.38
2023-03-12T09:45:00.566Z,100551.50
2023-03-12T09:47:30.367Z,100554.38
2023-03-12T09:50:17.344Z,100549.16
2023-03-12T09:53:23.036Z,100551.59
2023-03-12T09:55:51.370Z,100557.69
2023-03-12T09:58:34.823Z,100552.81
2023-03-12T10:01:10.510Z,100552.66
2023-03-12T10:03:47.697Z,100563.50
2023-03-12T10:06:23.303Z,100567.25
2023-03-12T10:09:24.228Z,100565.19
2023-03-12T10:12:10.532Z,100568.06
2023-03-12T10:15:15.313Z,100569.03
2023-03-12T10:17:48.186Z,100575.59
2023-03-12T10:20:33.308Z,100578.38
2023-03-12T10:23:20.134Z,100578.34
2023-03-12T10:26:16.816Z,100573.81
2023-03-12T10:29:03.649Z,100575.09
2023-03-12T10:31:37.798Z,100569.19
2023-03-12T10:34:31.174Z,100567.25
2023-03-12T10:37:05.417Z,100564.16
2023-03-12T10:39:35.237Z,100564.53
2023-03-12T10:42:02.465Z,100563.72
2023-03-12T10:44:29.519Z,100570.28
2023-03-12T10:47:00.963Z,100579.78
2023-03-12T10:49:31.318Z,100573.59
2023-03-12T10:51:59.400Z,100588.44
2023-03-12T10:54:31.158Z,100591.84
2023-03-12T10:56:58.266Z,100586.72
2023-03-12T10:59:30.969Z,100596.94
2023-03-12T11:01:58.480Z,100594.97
2023-03-12T11:04:28.809Z,100592.34
2023-03-12T11:07:12.216Z,100588.19
2023-03-12T11:09:39.003Z,100599.13
2023-03-12T11:12:26.061Z,100596.97
2023-03-12T11:14:53.327Z,100591.97
2023-03-12T11:17:28.923Z,100599.72
2023-03-12T11:19:56.022Z,100596.19
2023-03-12T11:22:34.832Z,100598.97
2023-03-12T11:25:06.792Z,100600.09
2023-03-12T11:28:00.411Z,100601.59
2023-03-12T11:30:35.876Z,100602.97
2023-03-12T11:33:04.057Z,100596.03
2023-03-12T11:36:05.752Z,100598.47
2023-03-12T11:38:40.364Z,100598.19
2023-03-12T11:41:30.715Z,100590.19
2023-03-12T11:44:02.083Z,100595.16
2023-03-12T11:46:51.349Z,100590.22
2023-03-12T11:49:28.806Z,100589.03
2023-03-12T11:52:04.572Z,100571.75
2023-03-12T11:55:02.016Z,100590.97
2023-03-12T11:57:40.731Z,100581.78
2023-03-12T12:00:21.748Z,100570.50
2023-03-12T12:03:02.682Z,100588.44
2023-03-12T12:05:41.093Z,100586.41
2023-03-12T12:08:24.614Z,100586.53
2023-03-12T12:11:14.506Z,100574.84
2023-03-12T12:13:44.920Z,100581.03
2023-03-12T12:16:24.445Z,100569.81
2023-03-12T12:19:30.872Z,100582.56
2023-03-12T12:22:18.644Z,100580.19
2023-03-12T12:25:10.743Z,100576.50
2023-03-12T12:27:45.749Z,100571.53
2023-03-12T12:31:03.407Z,100584.28
2023-03-12T12:33:48.185Z,100580.28
2023-03-12T12:36:15.060Z,100556.47
2023-03-12T12:38:54.286Z,100571.81
2023-03-12T12:41:25.858Z,100563.31
2023-03-12T12:44:12.162Z,100575.88
2023-03-12T12:46:45.292Z,100572.00
2023-03-12T12:49:19.600Z,100557.28
2023-03-12T12:52:03.311Z,100556.97
2023-03-12T12:54:48.406Z,100557.28
2023-03-12T12:57:21.511Z,100542.94
2023-03-12T13:00:10.975Z,100544.72
2023-03-12T13:02:40.319Z,100538.50
2023-03-12T13:05:42.449Z,100551.84
2023-03-12T13:08:34.716Z,100558.09
2023-03-12T13:11:23.422Z,100559.00
2023-03-12T13:14:02.707Z,100550.06
2023-03-12T13:16:37.977Z,100544.38
2023-03-12T13:19:13.935Z,100551.41
2023-03-12T13:21:50.831Z,100545.75
2023-03-12T13:24:33.766Z,100551.44
2023-03-12T13:27:09.886Z,100537.56
2023-03-12T13:29:40.317Z,100541.22
2023-03-12T13:32:34.789Z,100529.47
2023-03-12T13:35:25.826Z,100539.41
2023-03-12T13:37:59.727Z,100537.34
2023-03-12T13:40:29.845Z,100536.13
2023-03-12T13:43:14.441Z,100534.78
2023-03-12T13:45:47.649Z,100533.84
2023-03-12T13:48:17.453Z,100546.34
2023-03-12T13:50:52.344Z,100528.88
2023-03-12T13:53:28.200Z,100525.22
2023-03-12T13:56:27.350Z,100542.69
2023-03-12T13:59:05.586Z,100539.00
2023-03-12T14:01:41.162Z,100532.03
2023-03-12T14:04:12.853Z,100542.94
2023-03-12T14:07:07.715Z,100544.25
2023-03-12T14:10:12.155Z,100545.28
2023-03-12T14:12:46.266Z,100548.09
2023-03-12T14:15:24.015Z,100543.47
2023-03-12T14:17:59.576Z,100550.88
2023-03-12T14:20:26.917Z,100550.81
2023-03-12T14:23:05.845Z,100554.13
2023-03-12T14:25:38.243Z,100557.22
2023-03-12T14:28:14.540Z,100540.34
2023-03-12T14:30:44.064Z,100538.28
2023-03-12T14:33:14.197Z,100539.88
2023-03-12T14:35:47.611Z,100544.16
2023-03-12T14:38:22.027Z,100561.72
2023-03-12T14:41:13.634Z,100544.31
2023-03-12T14:43:42.626Z,100546.50
2023-03-12T14:46:21.350Z,100548.84
2023-03-12T14:48:50.229Z,100541.47
2023-03-12T14:51:27.902Z,100536.50
2023-03-12T14:53:55.266Z,100544.06
2023-03-12T14:56:24.256Z,100553.44
2023-03-12T14:58:52.007Z,100545.63
2023-03-12T15:01:24.347Z,100556.25
2023-03-12T15:03:54.991Z,100558.16
2023-03-12T15:06:36.937Z,100558.97
2023-03-12T15:09:06.380Z,100548.38
2023-03-12T15:11:37.524Z,100554.88
2023-03-12T15:14:09.856Z,100560.94
2023-03-12T15:16:36.971Z,100556.63
2023-03-12T15:19:04.226Z,100554.94
2023-03-12T15:21:35.365Z,100551.59
2023-03-12T15:24:03.072Z,100566.72
2023-03-12T15:26:33.131Z,100552.31
2023-03-12T15:29:15.700Z,100553.81
2023-03-12T15:31:44.644Z,100561.16
2023-03-12T15:34:13.496Z,100561.59
2023-03-12T15:36:48.576Z,100542.22
2023-03-12T15:39:26.522Z,100542.31
2023-03-12T15:41:54.874Z,100548.25
2023-03-12T15:44:31.014Z,100548.25
2023-03-12T15:47:07.975Z,100540.88
2023-03-12T15:49:36.427Z,100548.69
2023-03-12T15:52:18.364Z,100538.34
2023-03-12T15:55:19.100Z,100544.25
2023-03-12T15:57:54.131Z,100542.88
2023-03-12T16:00:42.756Z,100536.03
2023-03-12T16:03:17.210Z,100542.97
2023-03-12T16:05:44.586Z,100537.31
2023-03-12T16:08:18.873Z,100538.25
2023-03-12T16:10:47.076Z,100527.09
2023-03-12T16:13:16.006Z,100540.56
2023-03-12T16:15:43.505Z,100542.00
2023-03-12T16:18:15.808Z,100531.75
2023-03-12T16:20:43.747Z,100527.72
2023-03-12T16:23:11.155Z,100511.81
2023-03-12T16:25:38.427Z,100524.88
2023-03-12T16:28:06.499Z,100525.03
2023-03-12T16:30:35.885Z,100524.44
2023-03-12T16:33:08.642Z,100526.81
2023-03-12T16:35:36.697Z,100524.13
2023-03-12T16:38:03.782Z,100527.03
2023-03-12T16:40:36.259Z,100521.69
2023-03-12T16:43:06.135Z,100532.72
2023-03-12T16:45:37.073Z,100529.06
2023-03-12T16:48:05.731Z,100535.09
2023-03-12T16:50:32.708Z,100527.88
2023-03-12T16:53:00.694Z,100532.25
2023-03-12T16:55:29.408Z,100526.00
2023-03-12T16:58:01.571Z,100539.41
2023-03-12T17:00:30.550Z,100531.47
2023-03-12T17:02:58.149Z,100532.09
2023-03-12T17:05:26.520Z,100540.41
2023-03-12T17:07:54.703Z,100535.09
2023-03-12T17:10:22.388Z,100534.19
2023-03-12T17:12:49.970Z,100531.34
2023-03-12T17:15:28.407Z,100529.19
2023-03-12T17:17:55.750Z,100533.38
2023-03-12T17:20:24.711Z,100526.53
2023-03-12T17:22:51.398Z,100531.00
2023-03-12T17:25:24.917Z,100538.91
2023-03-12T17:27:52.236Z,100530.78
2023-03-12T17:30:20.898Z,100520.63
2023-03-12T17:32:48.006Z,100518.34
2023-03-12T17:35:14.796Z,100517.94
2023-03-12T17:37:41.591Z,100516.66
2023-03-12T17:40:10.008Z,100519.72
2023-03-12T17:42:37.603Z,100518.09
2023-03-12T17:45:06.460Z,100522.84
2023-03-12T17:47:33.264Z,100525.22
2023-03-12T17:50:00.093Z,100517.75
2023-03-12T17:52:26.956Z,100529.09
2023-03-12T17:54:54.580Z,100529.13
2023-03-12T17:57:21.302Z,100530.38
2023-03-12T17:59:48.121Z,100520.13
2023-03-12T18:02:14.920Z,100531.25
2023-03-12T18:04:41.613Z,100525.81
2023-03-12T18:07:08.607Z,100519.09
2023-03-12T18:09:35.684Z,100520.31
2023-03-12T18:12:02.547Z,100520.13
2023-03-12T18:14:29.340Z,100516.91
2023-03-12T18:16:56.100Z,100510.75
2023-03-12T18:19:23.632Z,100512.88
2023-03-12T18:21:50.396Z,100505.53
2023-03-12T18:24:17.063Z,100504.06
2023-03-12T18:26:45.318Z,100501.97
2023-03-12T18:29:12.498Z,100495.81
2023-03-12T18:31:39.556Z,100496.44
2023-03-12T18:34:06.335Z,100494.91
2023-03-12T18:36:33.079Z,100490.84
2023-03-12T18:39:04.350Z,100491.66
2023-03-12T18:41:32.868Z,100500.59
2023-03-12T18:44:00.151Z,100494.75
2023-03-12T18:46:27.374Z,100497.03
2023-03-12T18:48:54.474Z,100491.44
2023-03-12T18:51:21.291Z,100492.72
2023-03-12T18:53:47.976Z,100486.25
2023-03-12T18:56:14.823Z,100477.84
2023-03-12T18:58:41.593Z,100477.25
2023-03-12T19:01:08.389Z,100473.88
2023-03-12T19:03:36.512Z,100468.97
2023-03-12T19:06:08.843Z,100474.66
2023-03-12T19:08:37.400Z,100465.84
2023-03-12T19:11:05.671Z,100457.75
2023-03-12T19:13:32.584Z,100448.50
2023-03-12T19:16:05.417Z,100448.88
2023-03-12T19:18:32.593Z,100446.94
2023-03-12T19:20:59.361Z,100446.63
2023-03-12T19:23:26.143Z,100450.22
2023-03-12T19:25:52.891Z,100434.53
2023-03-12T19:28:19.801Z,100431.03
2023-03-12T19:30:46.736Z,100420.88
2023-03-12T19:33:14.288Z,100421.00
2023-03-12T19:35:41.937Z,100416.03
2023-03-12T19:38:08.956Z,100408.13
2023-03-12T19:40:35.832Z,100407.47
2023-03-12T19:43:02.860Z,100405.09
2023-03-12T19:45:29.758Z,100396.25
2023-03-12T19:47:56.596Z,100395.34
2023-03-12T19:50:24.190Z,100376.75
2023-03-12T19:52:51.225Z,100382.19
2023-03-12T19:55:18.001Z,100365.84
2023-03-12T19:57:45.050Z,100374.72
2023-03-12T20:00:12.460Z,100364.09
2023-03-12T20:02:40.551Z,100356.19
2023-03-12T20:05:08.802Z,100356.72
2023-03-12T20:07:36.439Z,100349.91
2023-03-12T20:10:03.558Z,100356.78
2023-03-12T20:12:30.450Z,100350.53
2023-03-12T20:14:57.263Z,100346.47
2023-03-12T20:17:24.712Z,100352.13
2023-03-12T20:19:51.709Z,100356.81
2023-03-12T20:22:18.522Z,100363.13
2023-03-12T20:24:45.245Z,100359.19
2023-03-12T20:27:11.979Z,100356.84
2023-03-12T20:29:38.825Z,100352.66
2023-03-12T20:32:05.815Z,100350.66
2023-03-12T20:34:32.592Z,100349.91
2023-03-12T20:36:59.341Z,100347.63
2023-03-12T20:39:26.291Z,100336.19
2023-03-12T20:41:53.112Z,100339.28
2023-03-12T20:44:19.864Z,100341.59
2023-03-12T20:46:47.579Z,100335.03
2023-03-12T20:49:14.969Z,100335.63
2023-03-12T20:51:42.871Z,100335.03
2023-03-12T20:54:09.645Z,100330.38
2023-03-12T20:56:36.677Z,100326.19
2023-03-12T20:59:03.465Z,100318.00
2023-03-12T21:01:30.286Z,100301.81
2023-03-12T21:03:57.899Z,100308.53
2023-03-12T21:06:24.840Z,100302.13
2023-03-12T21:08:56.320Z,100310.31
2023-03-12T21:11:23.259Z,100304.38
2023-03-12T21:13:50.110Z,100292.88
2023-03-12T21:16:17.429Z,100297.63
2023-03-12T21:18:44.272Z,100295.81
2023-03-12T21:21:11.486Z,100281.69
2023-03-12T21:23:38.844Z,100283.38
2023-03-12T21:26:09.414Z,100271.81
2023-03-12T21:28:36.507Z,100272.13
2023-03-12T21:31:11.769Z,100268.53
2023-03-12T21:33:39.066Z,100255.88
2023-03-12T21:36:07.734Z,100255.72
2023-03-12T21:38:35.816Z,100250.63
2023-03-12T21:41:14.073Z,100255.38
2023-03-12T21:43:42.101Z,100249.19
2023-03-12T21:46:11.732Z,100248.16
2023-03-12T21:48:39.370Z,100243.44
2023-03-12T21:51:11.352Z,100236.28
2023-03-12T21:53:39.079Z,100233.13
2023-03-12T21:56:07.532Z,100225.97
2023-03-12T21:58:35.574Z,100223.06
2023-03-12T22:01:07.210Z,100217.72
2023-03-12T22:03:34.672Z,100198.81
2023-03-12T22:06:01.781Z,100198.81
2023-03-12T22:08:42.989Z,100191.13
2023-03-12T22:11:28.516Z,100171.66
2023-03-12T22:14:20.686Z,100172.81
2023-03-12T22:16:47.627Z,100154.03
2023-03-12T22:19:14.458Z,100169.13
2023-03-12T22:21:42.811Z,100146.06
2023-03-12T22:24:10.618Z,100141.72
2023-03-12T22:26:38.541Z,100137.88
2023-03-12T22:29:07.151Z,100133.13
2023-03-12T22:31:34.094Z,100116.38
2023-03-12T22:34:05.700Z,100125.75
2023-03-12T22:36:49.884Z,100110.06
2023-03-12T22:39:34.724Z,100105.97
2023-03-12T22:42:25.156Z,100105.38
2023-03-12T22:45:08.532Z,100099.56
2023-03-12T22:47:35.720Z,100099.22
2023-03-12T22:50:02.554Z,100091.94
2023-03-12T22:52:29.428Z,100088.56
2023-03-12T22:54:56.215Z,100100.19
2023-03-12T22:57:23.731Z,100088.22
2023-03-12T22:59:50.831Z,100081.09
2023-03-12T23:02:24.429Z,100066.47
2023-03-12T23:04:51.437Z,100071.84
2023-03-12T23:07:29.634Z,100056.94
2023-03-12T23:10:12.680Z,100055.09
2023-03-12T23:13:02.313Z,100040.19
2023-03-12T23:15:41.125Z,100034.28
2023-03-12T23:18:11.887Z,100029.91
2023-03-12T23:20:39.339Z,100022.31
2023-03-12T23:23:06.252Z,100014.91
2023-03-12T23:25:33.641Z,100016.88
2023-03-12T23:28:02.788Z,100005.56
2023-03-12T23:30:29.998Z,100008.28
2023-03-12T23:32:57.097Z,100001.38
2023-03-12T23:35:24.088Z,99988.84
2023-03-12T23:37:56.719Z,99978.03
2023-03-12T23:40:23.580Z,99978.00
2023-03-12T23:42:50.675Z,99977.03
2023-03-12T23:45:17.502Z,99972.38
2023-03-12T23:47:47.212Z,99952.47
2023-03-12T23:50:14.232Z,99941.22
2023-03-12T23:52:41.225Z,99945.06
2023-03-12T23:55:08.482Z,99940.13
2023-03-12T23:57:35.282Z,99933.59
